Time;durP1;ratioP1;P1;durP2;ratioP2;P2;SDS_P1;SDS_P2;PMS_P1;PMS_P2;Temp;Humidity;BMP_temperature;BMP_pressure;BME280_temperature;BME280_humidity;BME280_pressure;Samples;Min_cycle;Max_cycle;Signal;HPM_P1;HPM_P2
2022/06/29 00:04:21;;;;;;;;;;;;;;;21.57;100.00;100843.63;10586869;28;19934;-65
2022/06/29 00:09:24;;;;;;;;;;;;;;;21.50;100.00;100857.22;10586724;28;20468;-64
2022/06/29 00:14:29;;;;;;;;;;;;;;;21.54;100.00;100853.47;10588953;28;20404;-67
2022/06/29 00:19:32;;;;;;;;;;;;;;;21.52;100.00;100845.63;10589272;28;20015;-67
2022/06/29 00:24:35;;;;;;;;;;;;;;;21.50;100.00;100855.41;10589214;28;19974;-67
2022/06/29 00:29:39;;;;;;;;;;;;;;;21.46;100.00;100855.63;10589370;28;20308;-66
2022/06/29 00:34:42;;;;;;;;;;;;;;;21.48;100.00;100849.34;10589201;28;19951;-70
2022/06/29 00:39:46;;;;;;;;;;;;;;;21.45;100.00;100848.66;10588708;28;20024;-66
2022/06/29 00:44:50;;;;;;;;;;;;;;;21.43;100.00;100846.03;10588252;28;19923;-68
2022/06/29 00:49:53;;;;;;;;;;;;;;;21.39;100.00;100841.00;10588120;28;19923;-67
2022/06/29 00:54:57;;;;;;;;;;;;;;;21.40;100.00;100826.84;10588576;28;19931;-67
2022/06/29 01:00:02;;;;;;;;;;;;;;;21.40;100.00;100834.75;10587803;28;19923;-64
2022/06/29 01:05:06;;;;;;;;;;;;;;;21.30;100.00;100812.34;10587592;28;19935;-65
2022/06/29 01:10:09;;;;;;;;;;;;;;;21.24;100.00;100799.47;10587201;28;19934;-64
2022/06/29 01:15:13;;;;;;;;;;;;;;;21.19;100.00;100788.25;10587760;28;19924;-68
2022/06/29 01:20:16;;;;;;;;;;;;;;;21.14;100.00;100782.34;10587374;28;19924;-68
2022/06/29 01:25:20;;;;;;;;;;;;;;;21.10;100.00;100770.19;10586849;28;19934;-67
2022/06/29 01:30:23;;;;;;;;;;;;;;;21.02;100.00;100778.47;10586717;28;20255;-66
2022/06/29 01:35:26;;;;;;;;;;;;;;;20.99;100.00;100770.69;10586272;28;19924;-68
2022/06/29 01:40:31;;;;;;;;;;;;;;;20.94;100.00;100767.38;10586381;28;20265;-68
2022/06/29 01:45:34;;;;;;;;;;;;;;;20.92;100.00;100755.16;10585833;28;19938;-66
2022/06/29 01:50:37;;;;;;;;;;;;;;;20.91;100.00;100750.81;10585724;28;20384;-65
2022/06/29 01:55:41;;;;;;;;;;;;;;;20.90;100.00;100749.97;10585855;28;19927;-65
2022/06/29 02:00:46;;;;;;;;;;;;;;;20.86;100.00;100755.47;10585071;28;20197;-64
2022/06/29 02:05:49;;;;;;;;;;;;;;;20.83;100.00;100747.69;10585724;28;19924;-68
2022/06/29 02:10:53;;;;;;;;;;;;;;;20.79;100.00;100752.25;10585230;28;19934;-59
2022/06/29 02:15:56;;;;;;;;;;;;;;;20.69;100.00;100746.53;10585285;28;20014;-62
2022/06/29 02:20:59;;;;;;;;;;;;;;;20.69;100.00;100754.44;10585144;28;19923;-60
2022/06/29 02:26:04;;;;;;;;;;;;;;;20.64;100.00;100747.66;10585036;28;19924;-61
2022/06/29 02:36:27;;;;;;;;;;;;;;;20.65;100.00;100759.94;10584774;28;19946;-66
2022/06/29 02:41:32;;;;;;;;;;;;;;;20.65;100.00;100759.94;10584500;28;20266;-64
2022/06/29 02:46:35;;;;;;;;;;;;;;;20.58;100.00;100755.84;10584406;28;19934;-64
2022/06/29 02:51:38;;;;;;;;;;;;;;;20.52;100.00;100756.97;10584454;28;19924;-61
2022/06/29 02:56:42;;;;;;;;;;;;;;;20.49;100.00;100758.88;10584366;28;20342;-62
2022/06/29 03:01:45;;;;;;;;;;;;;;;20.51;100.00;100760.56;10584263;28;19934;-59
2022/06/29 03:06:48;;;;;;;;;;;;;;;20.55;100.00;100751.56;10584579;28;19934;-58
2022/06/29 03:11:52;;;;;;;;;;;;;;;20.64;100.00;100748.50;10583739;28;19983;-66
2022/06/29 03:16:56;;;;;;;;;;;;;;;20.63;100.00;100746.81;10591685;28;19924;-61
2022/06/29 03:22:00;;;;;;;;;;;;;;;20.71;100.00;100737.69;10591839;28;19935;-64
2022/06/29 03:27:04;;;;;;;;;;;;;;;20.75;100.00;100749.81;10591495;28;20349;-64
2022/06/29 03:32:08;;;;;;;17.58;12.02;;;;;;;20.77;100.00;100740.03;10590961;28;20032;-65
2022/06/29 03:37:12;;;;;;;17.58;12.43;;;;;;;20.83;100.00;100742.41;10590855;28;20187;-68
2022/06/29 03:42:16;;;;;;;16.25;12.52;;;;;;;20.79;100.00;100743.47;10590420;28;20248;-69
2022/06/29 03:47:19;;;;;;;16.65;12.93;;;;;;;20.77;100.00;100747.97;10590095;28;20202;-66
2022/06/29 03:52:23;;;;;;;15.82;12.85;;;;;;;20.78;100.00;100747.88;10590035;28;20582;-71
2022/06/29 03:57:27;;;;;;;18.48;12.10;;;;;;;20.81;100.00;100744.25;10590028;28;20626;-66
2022/06/29 04:02:30;;;;;;;16.63;11.05;;;;;;;20.89;100.00;100737.69;10589992;28;20194;-69
2022/06/29 04:07:34;;;;;;;12.15;10.52;;;;;;;20.92;100.00;100731.41;10589638;28;20235;-67
2022/06/29 04:12:39;;;;;;;17.80;11.88;;;;;;;20.97;100.00;100729.44;10589308;28;20206;-69
2022/06/29 04:17:42;;;;;;;17.83;11.93;;;;;;;20.91;100.00;100716.50;10589075;28;20198;-69
2022/06/29 04:22:45;;;;;;;14.10;10.88;;;;;;;20.97;100.00;100703.88;10589019;28;20199;-69
2022/06/29 04:27:49;;;;;;;16.13;11.77;;;;;;;21.03;100.00;100708.91;10587558;28;20195;-68
2022/06/29 04:32:52;;;;;;;16.30;12.15;;;;;;;21.14;100.00;100711.06;10588577;28;20280;-68
2022/06/29 04:37:56;;;;;;;16.20;12.25;;;;;;;21.10;100.00;100709.47;10588271;28;20205;-69
2022/06/29 04:43:00;;;;;;;20.48;15.82;;;;;;;21.00;100.00;100716.13;10587995;28;20669;-69
2022/06/29 04:48:04;;;;;;;16.50;13.07;;;;;;;21.01;100.00;100717.81;10587928;28;20536;-67
2022/06/29 04:53:07;;;;;;;18.63;15.02;;;;;;;21.05;100.00;100717.63;10587717;28;20242;-64
2022/06/29 04:58:12;;;;;;;27.30;16.73;;;;;;;21.07;100.00;100717.56;10587606;28;20282;-66
2022/06/29 05:03:15;;;;;;;22.85;15.90;;;;;;;20.96;100.00;100710.09;10587690;28;20336;-68
2022/06/29 05:08:18;;;;;;;24.07;18.00;;;;;;;20.95;100.00;100718.09;10587032;28;20219;-70
2022/06/29 05:13:23;;;;;;;19.38;14.25;;;;;;;21.11;100.00;100724.38;10586618;28;20235;-67
2022/06/29 05:18:28;;;;;;;;;;;;;;;21.01;100.00;100726.59;10587014;28;20335;-62
2022/06/29 05:23:32;;;;;;;;;;;;;;;20.89;100.00;100734.19;10585824;28;20245;-65
2022/06/29 05:28:36;;;;;;;20.95;12.80;;;;;;;20.81;100.00;100742.50;10586173;28;19931;-64
2022/06/29 05:33:39;;;;;;;;;;;;;;;20.80;100.00;100735.47;10584822;28;19919;-62
2022/06/29 05:38:42;;;;;;;;;;;;;;;20.94;100.00;100726.91;10585986;28;19928;-62
2022/06/29 05:43:51;;;;;;;;;;;;;;;20.98;100.00;100720.59;10585303;28;19920;-61
2022/06/29 05:48:54;;;;;;;;;;;;;;;21.18;100.00;100729.31;10585719;28;20416;-65
2022/06/29 05:53:57;;;;;;;;;;;;;;;21.22;100.00;100735.28;10584308;28;20335;-61
2022/06/29 05:59:02;;;;;;;;;;;;;;;21.14;100.00;100738.28;10585647;28;19953;-60
2022/06/29 06:04:06;;;;;;;;;;;;;;;21.02;100.00;100738.03;10585058;28;20004;-66
2022/06/29 06:09:09;;;;;;;;;;;;;;;21.11;100.00;100732.28;10584889;28;19938;-68
2022/06/29 06:14:13;;;;;;;;;;;;;;;21.18;100.00;100728.44;10584088;28;19919;-67
2022/06/29 06:19:17;;;;;;;;;;;;;;;21.32;100.00;100744.47;10584892;28;19946;-69
2022/06/29 06:24:20;;;;;;;;;;;;;;;21.33;100.00;100741.75;10557221;28;19930;-66
2022/06/29 06:29:24;;;;;;;;;;;;;;;21.22;100.00;100746.72;10554906;28;19930;-66
2022/06/29 06:34:27;;;;;;;;;;;;;;;21.21;100.00;100752.09;10568587;28;19926;-66
2022/06/29 06:39:30;;;;;;;;;;;;;;;21.28;100.00;100741.13;10542145;28;19920;-67
2022/06/29 06:44:34;;;;;;;;;;;;;;;21.32;100.00;100734.78;10548940;28;19919;-65
2022/06/29 06:49:37;;;;;;;;;;;;;;;21.48;100.00;100746.34;10580883;28;19919;-67
2022/06/29 06:54:40;;;;;;;;;;;;;;;21.60;100.00;100748.38;10557342;28;19962;-66
2022/06/29 06:59:45;;;;;;;;;;;;;;;21.52;100.00;100754.94;10592718;28;19920;-65
2022/06/29 07:04:48;;;;;;;;;;;;;;;21.58;100.00;100760.81;10589362;27;19930;-66
2022/06/29 07:09:51;;;;;;;;;;;;;;;21.56;100.00;100757.38;10591915;28;19919;-66
2022/06/29 07:14:55;;;;;;;;;;;;;;;21.60;100.00;100758.94;10591156;28;19919;-66
2022/06/29 07:19:58;;;;;;;;;;;;;;;21.53;100.00;100762.81;10591726;28;19919;-70
2022/06/29 07:25:01;;;;;;;;;;;;;;;21.64;100.00;100768.41;10591039;28;19930;-65
2022/06/29 07:30:06;;;;;;;;;;;;;;;21.66;100.00;100763.03;10591377;28;20238;-67
2022/06/29 07:35:09;;;;;;;;;;;;;;;21.74;100.00;100756.44;10590509;28;19959;-68
2022/06/29 07:40:12;;;;;;;;;;;;;;;21.74;100.00;100759.09;10590825;28;19923;-69
2022/06/29 07:45:18;;;;;;;;;;;;;;;21.65;100.00;100749.00;10590380;28;19920;-66
2022/06/29 07:50:26;;;;;;;;;;;;;;;21.61;100.00;100759.78;10590713;28;19972;-65
2022/06/29 07:55:29;;;;;;;;;;;;;;;21.55;100.00;100746.88;10590143;28;19919;-66
2022/06/29 08:00:34;;;;;;;;;;;;;;;21.68;100.00;100742.69;10589774;28;19923;-66
2022/06/29 08:05:37;;;;;;;;;;;;;;;21.98;100.00;100756.19;10589344;28;20261;-64
2022/06/29 08:10:40;;;;;;;;;;;;;;;22.19;100.00;100750.69;10589679;28;19920;-66
2022/06/29 08:15:45;;;;;;;;;;;;;;;22.28;100.00;100750.19;10589903;28;19920;-69
2022/06/29 08:20:49;;;;;;;;;;;;;;;22.47;100.00;100750.94;10589548;28;19919;-67
2022/06/29 08:25:52;;;;;;;;;;;;;;;22.32;100.00;100738.53;10588924;28;19920;-66
2022/06/29 08:31:16;;;;;;;;;;;;;;;22.45;100.00;100734.28;10588815;28;19919;-66
2022/06/29 08:36:19;;;;;;;;;;;;;;;22.60;100.00;100736.19;10588251;28;19930;-66
2022/06/29 08:41:42;;;;;;;;;;;;;;;22.70;100.00;100729.44;10588906;28;19920;-66
2022/06/29 08:46:47;;;;;;;;;;;;;;;22.85;100.00;100733.91;10587984;28;19926;-66
2022/06/29 08:51:50;;;;;;;;;;;;;;;22.89;100.00;100714.28;10588038;28;20246;-66
2022/06/29 08:56:53;;;;;;;;;;;;;;;23.10;100.00;100712.22;10587530;28;19930;-65
2022/06/29 09:01:58;;;;;;;;;;;;;;;22.90;100.00;100715.97;10588254;28;19919;-65
2022/06/29 09:07:01;;;;;;;;;;;;;;;22.85;100.00;100715.38;10586707;28;20307;-67
2022/06/29 09:12:05;;;;;;;;;;;;;;;22.90;100.00;100717.75;10586509;28;19923;-66
2022/06/29 09:17:10;;;;;;;;;;;;;;;23.05;100.00;100724.88;10587002;28;19930;-69
2022/06/29 09:22:13;;;;;;;;;;;;;;;22.93;100.00;100721.09;10587449;28;19928;-69
2022/06/29 09:27:16;;;;;;;;;;;;;;;22.90;100.00;100737.16;10586521;28;19926;-67
2022/06/29 09:32:21;;;;;;;;;;;;;;;23.04;100.00;100728.44;10586300;28;19927;-67
2022/06/29 09:37:25;;;;;;;;;;;;;;;23.16;100.00;100724.28;10586178;28;20262;-69
2022/06/29 09:42:28;;;;;;;;;;;;;;;23.12;100.00;100718.31;10585805;28;20303;-66
2022/06/29 09:47:33;;;;;;;;;;;;;;;23.14;100.00;100721.72;10585506;28;20042;-65
2022/06/29 09:52:39;;;;;;;;;;;;;;;23.14;100.00;100721.72;10585980;28;19920;-65
2022/06/29 09:57:44;;;;;;;;;;;;;;;23.21;100.00;100730.19;10585447;28;19919;-66
2022/06/29 10:02:47;;;;;;;;;;;;;;;;;;10585268;28;19919;-65
2022/06/29 10:07:53;;;;;;;;;;;;;;;23.42;100.00;100735.16;10584818;28;19929;-64
2022/06/29 10:18:34;;;;;;;;;;;;;;;23.78;100.00;100733.03;10584607;28;19939;-67
2022/06/29 10:23:45;;;;;;;;;;;;;;;23.72;100.00;100740.47;10584956;28;19930;-70
2022/06/29 10:28:48;;;;;;;;;;;;;;;23.51;100.00;100744.38;10584188;28;19919;-68
2022/06/29 10:33:51;;;;;;;;;;;;;;;23.55;100.00;100737.97;10584388;28;19920;-66
2022/06/29 10:39:11;;;;;;;;;;;;;;;24.07;100.00;100736.66;10584241;28;19933;-67
2022/06/29 10:44:14;;;;;;;;;;;;;;;24.00;100.00;100732.66;10584789;28;19927;-69
2022/06/29 10:49:19;;;;;;;;;;;;;;;24.27;100.00;100724.84;10580793;28;19920;-68
2022/06/29 10:54:25;;;;;;;;;;;;;;;24.74;98.06;100713.06;10584366;28;19919;-68
2022/06/29 10:59:32;;;;;;;;;;;;;;;25.88;92.51;100701.97;10584291;28;19920;-69
2022/06/29 11:04:35;;;;;;;;;;;;;;;26.68;87.75;100704.38;10584377;28;20003;-68
2022/06/29 11:20:30;;;;;;;;;;;;;;;27.77;80.51;100686.50;10583968;28;20333;-65
2022/06/29 11:25:37;;;;;;;;;;;;;;;27.62;81.42;100681.47;10583758;28;19930;-68
2022/06/29 11:30:41;;;;;;;;;;;;;;;27.72;79.19;100669.13;10583168;28;19919;-67
2022/06/29 11:35:44;;;;;;;;;;;;;;;28.08;78.17;100675.19;10587201;28;20265;-69
2022/06/29 11:40:51;;;;;;;;;;;;;;;29.34;74.99;100669.44;10565501;28;19920;-66
2022/06/29 11:46:18;;;;;;;;;;;;;;;29.72;73.85;100662.75;10548568;28;19924;-66
2022/06/29 11:51:21;;;;;;;;;;;;;;;29.66;72.11;100652.53;10548282;28;20266;-69
2022/06/29 11:56:27;;;;;;;;;;;;;;;29.14;72.81;100650.69;10548109;28;19920;-67
2022/06/29 12:01:30;;;;;;;;;;;;;;;29.20;72.14;100658.22;10548228;28;19941;-70
2022/06/29 12:06:36;;;;;;;;;;;;;;;30.35;69.42;100636.69;10547953;28;19920;-66
2022/06/29 12:11:40;;;;;;;;;;;;;;;31.08;67.23;100622.91;10547553;28;19966;-67
2022/06/29 12:16:43;;;;;;;;;;;;;;;30.77;66.81;100625.81;10547097;28;19930;-70
2022/06/29 12:21:48;;;;;;;;;;;;;;;30.67;66.33;100620.41;10547653;28;20338;-68
2022/06/29 12:26:53;;;;;;;;;;;;;;;30.79;66.92;100613.97;10547195;28;20262;-70
2022/06/29 12:31:56;;;;;;;;;;;;;;;30.61;67.18;100607.56;10546736;28;19920;-66
2022/06/29 12:37:00;;;;;;;;;;;;;;;30.40;66.42;100602.28;10546417;28;20061;-69
2022/06/29 12:42:05;;;;;;;;;;;;;;;30.47;67.04;100597.22;10546245;28;19920;-68
2022/06/29 12:47:08;;;;;;;;;;;;;;;30.81;66.79;100595.94;10545185;28;20407;-67
2022/06/29 12:52:11;;;;;;;;;;;;;;;30.28;64.63;100575.72;10545810;28;19930;-66
2022/06/29 12:57:16;;;;;;;;;;;;;;;30.10;65.07;100571.94;10546106;28;19920;-69
2022/06/29 13:02:21;;;;;;;;;;;;;;;29.93;65.71;100568.06;10545806;28;20032;-67
2022/06/29 13:07:26;;;;;;;;;;;;;;;30.18;66.20;100554.22;10563982;28;19944;-67
2022/06/29 13:12:30;;;;;;;;;;;;;;;30.71;64.42;100538.75;10586905;28;19919;-70
2022/06/29 13:17:33;;;;;;;;;;;;;;;30.97;62.67;100537.25;10586956;28;19930;-70
2022/06/29 13:22:36;;;;;;;;;;;;;;;30.79;64.43;100543.41;10586659;28;19920;-69
2022/06/29 13:27:41;;;;;;;;;;;;;;;30.99;61.79;100535.28;10586450;28;19919;-67
2022/06/29 13:32:44;;;;;;;;;;;;;;;30.68;63.63;100536.34;10586184;28;19942;-69
2022/06/29 13:37:47;;;;;;;;;;;;;;;30.82;64.12;100535.97;10586150;28;19919;-69
2022/06/29 13:42:52;;;;;;;;;;;;;;;30.59;63.73;100526.44;10585468;28;19929;-69
2022/06/29 13:48:08;;;;;;;;;;;;;;;30.59;63.87;100538.03;10586163;28;19919;-68
2022/06/29 13:53:12;;;;;;;;;;;;;;;30.55;64.55;100528.56;10584891;28;20025;-71
2022/06/29 13:58:17;;;;;;;;;;;;;;;30.75;62.94;100512.50;10585262;28;20014;-68
2022/06/29 14:03:20;;;;;;;;;;;;;;;30.68;62.80;100516.72;10585197;28;19946;-66
2022/06/29 14:08:23;;;;;;;;;;;;;;;30.82;62.61;100519.88;10585156;28;20007;-66
2022/06/29 14:13:47;;;;;;;;;;;;;;;31.11;62.34;100515.38;10585013;28;20356;-66
2022/06/29 14:18:50;;;;;;;;;;;;;;;30.64;63.21;100510.78;10585094;28;20303;-67
2022/06/29 14:23:53;;;;;;;;;;;;;;;30.87;63.05;100508.72;10585210;28;19919;-68
2022/06/29 14:29:00;;;;;;;;;;;;;;;30.81;62.93;100514.63;10585187;28;20300;-69
2022/06/29 14:34:03;;;;;;;;;;;;;;;30.61;62.77;100519.13;10584219;28;19920;-70
2022/06/29 14:39:06;;;;;;;;;;;;;;;30.41;63.19;100512.88;10584067;28;20306;-66
2022/06/29 14:44:12;;;;;;;;;;;;;;;30.06;62.30;100507.09;10583857;28;19942;-67
2022/06/29 14:49:15;;;;;;;;;;;;;;;29.96;63.67;100508.06;10584502;28;20396;-67
2022/06/29 14:54:18;;;;;;;;;;;;;;;29.89;64.14;100506.91;10583797;28;19919;-69
2022/06/29 14:59:23;;;;;;;;;;;;;;;29.99;64.34;100495.25;10584292;28;20243;-67
2022/06/29 15:04:27;;;;;;;;;;;;;;;29.89;64.15;100494.34;10583294;28;20274;-70
2022/06/29 15:09:33;;;;;;;;;;;;;;;29.82;63.40;100484.31;10586017;28;19920;-68
2022/06/29 15:14:38;;;;;;;;;;;;;;;29.69;64.17;100484.53;10591785;28;19919;-69
2022/06/29 15:19:41;;;;;;;;;;;;;;;29.52;64.23;100491.34;10591680;28;19919;-69
2022/06/29 15:24:44;;;;;;;;;;;;;;;29.59;63.82;100485.44;10591812;28;19930;-69
2022/06/29 15:29:49;;;;;;;;;;;;;;;29.50;65.36;100490.63;10591413;27;19920;-65
2022/06/29 15:40:12;;;;;;;;;;;;;;;29.58;65.84;100497.13;10591638;28;19926;-64
2022/06/29 15:45:19;;;;;;;;;;;;;;;29.47;64.77;100482.00;10590467;28;19920;-68
2022/06/29 15:50:22;;;;;;;;;;;;;;;29.30;66.50;100483.44;10590788;28;19931;-67
2022/06/29 15:55:34;;;;;;;;;;;;;;;29.32;65.86;100489.50;10590531;28;19926;-69
2022/06/29 16:00:39;;;;;;;;;;;;;;;29.20;65.50;100490.56;10590331;28;20348;-68
2022/06/29 16:05:42;;;;;;;;;;;;;;;29.06;66.52;100485.50;10589655;28;20250;-68
2022/06/29 16:10:45;;;;;;;;;;;;;;;29.02;65.52;100465.34;10589790;28;19919;-69
2022/06/29 16:15:49;;;;;;;;;;;;;;;28.98;65.80;100473.75;10589237;28;19919;-67
2022/06/29 16:20:54;;;;;;;;;;;;;;;28.84;66.42;100461.53;10588792;28;20033;-69
2022/06/29 16:25:57;;;;;;;;;;;;;;;28.65;68.31;100455.22;10589134;28;20029;-66
2022/06/29 16:31:01;;;;;;;;;;;;;;;28.50;68.37;100451.09;10588954;28;20365;-68
2022/06/29 16:36:05;;;;;;;;;;;;;;;28.25;67.87;100441.59;10588770;28;20011;-68
2022/06/29 16:41:08;;;;;;;;;;;;;;;28.25;68.42;100438.94;10588744;28;20327;-66
2022/06/29 16:46:12;;;;;;;;;;;;;;;28.06;68.10;100428.88;10586600;28;20007;-67
2022/06/29 16:51:16;;;;;;;;;;;;;;;28.02;68.04;100430.13;10583996;28;19983;-64
2022/06/29 16:56:19;;;;;;;;;;;;;;;27.79;68.96;100425.75;10584229;28;19934;-65
2022/06/29 17:01:23;;;;;;;;;;;;;;;27.77;69.59;100432.16;10586648;28;20255;-65
2022/06/29 17:06:26;;;;;;;;;;;;;;;24.93;100.00;100439.16;10587637;28;19926;-66
2022/06/29 17:11:29;;;;;;;;;;;;;;;23.42;100.00;100433.06;10587585;28;19920;-60
2022/06/29 17:16:34;;;;;;;;;;;;;;;23.24;100.00;100451.88;10586994;28;19920;-65
2022/06/29 17:21:37;;;;;;;;;;;;;;;23.26;100.00;100453.50;10587023;28;19920;-60
2022/06/29 17:26:40;;;;;;;;;;;;;;;23.88;100.00;100441.66;10586990;28;19919;-63
2022/06/29 17:31:48;;;;;;;;;;;;;;;24.00;100.00;100447.06;10585990;28;19920;-63
2022/06/29 17:36:52;;;;;;;;;;;;;;;23.99;100.00;100448.00;10586127;28;20410;-60
2022/06/29 17:41:55;;;;;;;;;;;;;;;22.61;100.00;100467.97;10586012;28;19920;-66
2022/06/29 17:46:59;;;;;;;;;;;;;;;22.12;100.00;100469.00;10586132;28;19948;-62
2022/06/29 17:52:03;;;;;;;;;;;;;;;22.24;100.00;100476.25;10585990;28;20218;-67
2022/06/29 17:57:06;;;;;;;;;;;;;;;22.32;100.00;100478.44;10585278;28;19972;-68
2022/06/29 18:02:11;;;;;;;;;;;;;;;22.47;100.00;100473.16;10585135;28;19926;-68
2022/06/29 18:07:14;;;;;;;;;;;;;;;22.80;100.00;100470.38;10585332;28;20318;-66
2022/06/29 18:12:17;;;;;;;;;;;;;;;23.01;100.00;100473.56;10585139;28;19920;-68
2022/06/29 18:17:22;;;;;;;;;;;;;;;23.11;100.00;100467.63;10584965;28;20014;-69
2022/06/29 18:22:25;;;;;;;;;;;;;;;23.14;100.00;100475.41;10585619;28;19968;-65
2022/06/29 18:27:28;;;;;;;;;;;;;;;23.31;100.00;100475.28;10585435;28;19923;-67
2022/06/29 18:32:32;;;;;;;;;;;;;;;23.39;100.00;100480.09;10585159;28;20268;-68
2022/06/29 18:37:35;;;;;;;;;;;;;;;23.38;100.00;100483.72;10584740;28;19920;-68
2022/06/29 18:42:38;;;;;;;;;;;;;;;23.35;100.00;100499.78;10584080;28;19923;-68
2022/06/29 18:47:43;;;;;;;;;;;;;;;23.35;100.00;100519.16;10592067;28;19920;-68
2022/06/29 18:52:47;;;;;;;;;;;;;;;23.39;100.00;100512.75;10592546;28;20258;-69
2022/06/29 18:57:50;;;;;;;;;;;;;;;23.33;100.00;100517.56;10592426;28;19919;-67
2022/06/29 19:02:55;;;;;;;;;;;;;;;23.32;100.00;100522.00;10592766;28;19969;-66
2022/06/29 19:07:58;;;;;;;;;;;;;;;23.25;100.00;100525.06;10591993;28;19924;-66
2022/06/29 19:13:01;;;;;;;;;;;;;;;23.25;100.00;100531.22;10592205;28;19984;-68
2022/06/29 19:18:06;;;;;;;;;;;;;;;23.19;100.00;100520.16;10591874;28;20009;-68
2022/06/29 19:23:09;;;;;;;;;;;;;;;23.16;100.00;100529.13;10591386;28;19920;-65
2022/06/29 19:28:12;;;;;;;;;;;;;;;23.04;100.00;100506.00;10591515;28;19981;-66
2022/06/29 19:33:16;;;;;;;;;;;;;;;23.09;100.00;100503.09;10591473;28;19930;-65
2022/06/29 19:38:19;;;;;;;;;;;;;;;23.07;100.00;100499.69;10591375;28;19920;-65
2022/06/29 19:43:22;;;;;;;;;;;;;;;23.03;100.00;100492.88;10590822;28;19920;-65
2022/06/29 19:48:27;;;;;;;;;;;;;;;22.98;100.00;100495.78;10590835;28;19928;-66
2022/06/29 19:53:30;;;;;;;;;;;;;;;22.92;100.00;100500.59;10590655;28;19984;-66
2022/06/29 19:58:33;;;;;;;;;;;;;;;22.89;100.00;100505.13;10590151;28;19983;-65
2022/06/29 20:03:37;;;;;;;;;;;;;;;22.84;100.00;100506.34;10590520;28;20258;-67
2022/06/29 20:08:41;;;;;;;;;;;;;;;22.81;100.00;100502.06;10589869;28;20065;-67
2022/06/29 20:13:46;;;;;;;;;;;;;;;22.75;100.00;100491.84;10589795;28;19930;-66
2022/06/29 20:18:50;;;;;;;;;;;;;;;22.67;100.00;100496.72;10589934;28;19980;-65
2022/06/29 20:23:53;;;;;;;;;;;;;;;22.63;100.00;100507.56;10589559;28;19920;-66
2022/06/29 20:28:57;;;;;;;;;;;;;;;22.59;100.00;100506.06;10589014;28;20277;-65
2022/06/29 20:34:01;;;;;;;;;;;;;;;22.54;100.00;100506.28;10589009;28;19920;-67
2022/06/29 20:39:04;;;;;;;;;;;;;;;22.52;100.00;100507.31;10588848;28;19930;-66
2022/06/29 20:49:29;;;;;;;;;;;;;;;22.35;100.00;100521.47;10588501;28;19920;-66
2022/06/29 20:54:32;;;;;;;;;;;;;;;22.26;100.00;100527.25;10587996;28;19926;-65
2022/06/29 20:59:35;;;;;;;;;;;;;;;22.21;100.00;100525.81;10588102;28;20394;-67
2022/06/29 21:04:39;;;;;;;;;;;;;;;22.13;100.00;100520.94;10587746;28;20258;-66
2022/06/29 21:09:43;;;;;;;;;;;;;;;22.16;100.00;100522.59;10586783;28;20323;-68
2022/06/29 21:14:46;;;;;;;;;;;;;;;22.16;100.00;100515.47;10587261;28;19930;-65
2022/06/29 21:19:50;;;;;;;;;;;;;;;22.15;100.00;100512.91;10587067;28;19941;-64
2022/06/29 21:24:59;;;;;;;;;;;;;;;22.09;100.00;100508.81;10587157;28;19934;-64
2022/06/29 21:30:03;;;;;;;;;;;;;;;22.07;100.00;100517.78;10586816;28;19930;-65
2022/06/29 21:35:08;;;;;;;;;;;;;;;22.05;100.00;100520.53;10586630;28;19953;-64
2022/06/29 21:40:11;;;;;;;;;;;;;;;22.02;100.00;100510.09;10586470;27;19920;-68
2022/06/29 21:45:14;;;;;;;;;;;;;;;21.97;100.00;100503.38;10585915;28;19930;-67
2022/06/29 21:55:39;;;;;;;;;;;;;;;21.88;100.00;100498.56;10585745;28;19919;-64
2022/06/29 22:00:42;;;;;;;;;;;;;;;21.83;100.00;100496.16;10586085;28;19920;-67
2022/06/29 22:05:47;;;;;;;;;;;;;;;21.81;100.00;100508.63;10585631;28;19919;-69
2022/06/29 22:10:50;;;;;;;;;;;;;;;21.75;100.00;100512.41;10585461;28;19924;-67
2022/06/29 22:15:53;;;;;;;;;;;;;;;21.70;100.00;100500.38;10585278;28;19930;-66
2022/06/29 22:20:57;;;;;;;;;;;;;;;21.63;100.00;100506.91;10584737;28;19920;-67
2022/06/29 22:26:02;;;;;;;;;;;;;;;21.60;100.00;100494.75;10584974;28;19934;-65
2022/06/29 22:31:05;;;;;;;;;;;;;;;21.57;100.00;100494.06;10584862;28;19919;-66
2022/06/29 22:36:09;;;;;;;;;;;;;;;21.54;100.00;100507.41;10584736;28;19920;-65
2022/06/29 22:41:12;;;;;;;;;;;;;;;21.46;100.00;100509.59;10584743;28;20041;-66
2022/06/29 22:46:15;;;;;;;;;;;;;;;21.41;100.00;100506.34;10584559;28;20331;-66
2022/06/29 22:51:20;;;;;;;;;;;;;;;21.41;100.00;100498.41;10584734;28;19926;-65
2022/06/29 22:56:23;;;;;;;;;;;;;;;21.32;100.00;100491.84;10584548;28;19920;-65
2022/06/29 23:01:26;;;;;;;;;;;;;;;21.24;100.00;100477.31;10584395;28;19920;-65
2022/06/29 23:06:30;;;;;;;;;;;;;;;21.24;100.00;100479.97;10584223;28;20261;-62
2022/06/29 23:16:53;;;;;;;;;;;;;;;21.22;100.00;100471.25;11697917;22;20023;-64
2022/06/29 23:21:58;;;;;;;;;;;;;;;21.18;100.00;100457.38;10469894;22;20251;-62
2022/06/29 23:27:01;;;;;;;;;;;;;;;21.14;100.00;100437.31;10417418;28;20385;-62
2022/06/29 23:32:04;;;;;;;;;;;;;;;21.09;100.00;100431.44;10421484;28;19927;-62
2022/06/29 23:37:09;;;;;;;;;;;;;;;21.06;100.00;100434.25;10073902;28;10000459;-61
2022/06/29 23:42:12;;;;;;;;;;;;;;;21.07;100.00;100437.75;10421587;28;19921;-63
2022/06/29 23:47:16;;;;;;;;;;;;;;;21.02;100.00;100432.69;10421129;28;19928;-61
2022/06/29 23:52:21;;;;;;;;;;;;;;;21.03;100.00;100430.91;10421342;28;19925;-63
2022/06/29 23:57:24;;;;;;;;;;;;;;;20.99;100.00;100438.13;10420647;28;19931;-64
